Cuyamungue, New Mexico
Current Conditions -  °F | °C
As of 12:53 PM on Sunday 25 Jan 2015 (Local Time) from KSAF Reporting Station
Clear Clear  
Wind Chill: 51°   Ceiling: Unl
Heat Index: 51°   Visibility: 10mi
Dew Point: 22°   Wind: 8mph
Humidity: 32%   Direction: 360°N
Pressure: 30.26"   Gusts: NA
Location:  35.7017°N, 105.921°W
Report Text: KSAF 251953Z 36007KT 10SM CLR 11/M06 A3026 RMK AO2 SLP222 T01061056
Loading
Personal Weather Stations






























Interactive Weather Map New forecast layout! Learn more

10-Day Weather Forecast

Advertisements
Track Severe Weather on mobile